sensor_id;sensor_type;location;lat;lon;timestamp;temperature;humidity
6252;DHT22;3159;52.414;9.784;2023-07-31T00:00:14;18.00;99.90
6252;DHT22;3159;52.414;9.784;2023-07-31T00:02:41;18.00;99.90
6252;DHT22;3159;52.414;9.784;2023-07-31T00:05:09;18.10;99.90
6252;DHT22;3159;52.414;9.784;2023-07-31T00:07:36;18.10;99.90
6252;DHT22;3159;52.414;9.784;2023-07-31T00:10:03;18.10;99.90
6252;DHT22;3159;52.414;9.784;2023-07-31T00:12:30;18.20;99.90
6252;DHT22;3159;52.414;9.784;2023-07-31T00:14:57;18.30;99.90
6252;DHT22;3159;52.414;9.784;2023-07-31T00:17:24;18.20;99.90
6252;DHT22;3159;52.414;9.784;2023-07-31T00:19:51;18.30;99.90
6252;DHT22;3159;52.414;9.784;2023-07-31T00:22:19;18.40;99.90
6252;DHT22;3159;52.414;9.784;2023-07-31T00:24:46;18.40;99.90
6252;DHT22;3159;52.414;9.784;2023-07-31T00:27:12;18.40;99.90
6252;DHT22;3159;52.414;9.784;2023-07-31T00:29:39;18.50;99.90
6252;DHT22;3159;52.414;9.784;2023-07-31T00:32:07;18.60;99.90
6252;DHT22;3159;52.414;9.784;2023-07-31T00:34:34;18.50;99.90
6252;DHT22;3159;52.414;9.784;2023-07-31T00:37:01;18.50;99.90
6252;DHT22;3159;52.414;9.784;2023-07-31T00:39:30;18.60;99.90
6252;DHT22;3159;52.414;9.784;2023-07-31T00:41:57;18.60;99.90
6252;DHT22;3159;52.414;9.784;2023-07-31T00:44:24;18.70;99.90
6252;DHT22;3159;52.414;9.784;2023-07-31T00:46:51;18.80;99.90
6252;DHT22;3159;52.414;9.784;2023-07-31T00:49:18;18.80;99.90
6252;DHT22;3159;52.414;9.784;2023-07-31T00:51:45;18.80;99.90
6252;DHT22;3159;52.414;9.784;2023-07-31T00:54:11;18.80;99.90
6252;DHT22;3159;52.414;9.784;2023-07-31T00:56:40;18.20;99.90
6252;DHT22;3159;52.414;9.784;2023-07-31T00:59:08;18.20;99.90
6252;DHT22;3159;52.414;9.784;2023-07-31T01:01:35;18.30;99.90
6252;DHT22;3159;52.414;9.784;2023-07-31T01:04:02;18.30;99.90
6252;DHT22;3159;52.414;9.784;2023-07-31T01:06:33;18.20;99.90
6252;DHT22;3159;52.414;9.784;2023-07-31T01:09:05;18.00;99.90
6252;DHT22;3159;52.414;9.784;2023-07-31T01:11:37;18.20;99.90
6252;DHT22;3159;52.414;9.784;2023-07-31T01:14:06;18.20;99.90
6252;DHT22;3159;52.414;9.784;2023-07-31T01:16:33;18.20;99.90
6252;DHT22;3159;52.414;9.784;2023-07-31T01:19:00;18.00;99.90
6252;DHT22;3159;52.414;9.784;2023-07-31T01:21:41;17.90;99.90
6252;DHT22;3159;52.414;9.784;2023-07-31T01:24:21;18.00;99.90
6252;DHT22;3159;52.414;9.784;2023-07-31T01:26:53;18.10;99.90
6252;DHT22;3159;52.414;9.784;2023-07-31T01:29:29;18.20;99.90
6252;DHT22;3159;52.414;9.784;2023-07-31T01:32:01;18.20;99.90
6252;DHT22;3159;52.414;9.784;2023-07-31T01:34:30;18.10;99.90
6252;DHT22;3159;52.414;9.784;2023-07-31T01:36:57;17.90;99.90
6252;DHT22;3159;52.414;9.784;2023-07-31T01:39:24;17.40;99.90
6252;DHT22;3159;52.414;9.784;2023-07-31T01:41:52;17.40;99.90
6252;DHT22;3159;52.414;9.784;2023-07-31T01:44:19;17.60;99.90
6252;DHT22;3159;52.414;9.784;2023-07-31T01:46:46;17.60;99.90
6252;DHT22;3159;52.414;9.784;2023-07-31T01:49:13;17.70;99.90
6252;DHT22;3159;52.414;9.784;2023-07-31T01:51:40;17.60;99.90
6252;DHT22;3159;52.414;9.784;2023-07-31T01:54:07;17.80;99.90
6252;DHT22;3159;52.414;9.784;2023-07-31T01:56:33;17.90;99.90
6252;DHT22;3159;52.414;9.784;2023-07-31T01:59:01;17.60;99.90
6252;DHT22;3159;52.414;9.784;2023-07-31T02:01:28;17.70;99.90
6252;DHT22;3159;52.414;9.784;2023-07-31T02:03:55;17.80;99.90
6252;DHT22;3159;52.414;9.784;2023-07-31T02:06:23;17.90;99.90
6252;DHT22;3159;52.414;9.784;2023-07-31T02:08:53;17.90;99.90
6252;DHT22;3159;52.414;9.784;2023-07-31T02:11:19;18.00;99.90
6252;DHT22;3159;52.414;9.784;2023-07-31T02:13:46;18.00;99.90
6252;DHT22;3159;52.414;9.784;2023-07-31T02:16:14;18.00;99.90
6252;DHT22;3159;52.414;9.784;2023-07-31T02:18:41;18.00;99.90
6252;DHT22;3159;52.414;9.784;2023-07-31T02:21:08;18.10;99.90
6252;DHT22;3159;52.414;9.784;2023-07-31T02:23:35;18.00;99.90
6252;DHT22;3159;52.414;9.784;2023-07-31T02:26:07;17.90;99.90
6252;DHT22;3159;52.414;9.784;2023-07-31T02:28:34;18.00;99.90
6252;DHT22;3159;52.414;9.784;2023-07-31T02:31:01;17.90;99.90
6252;DHT22;3159;52.414;9.784;2023-07-31T02:33:29;17.90;99.90
6252;DHT22;3159;52.414;9.784;2023-07-31T02:35:56;17.80;99.90
6252;DHT22;3159;52.414;9.784;2023-07-31T02:38:22;17.90;99.90
6252;DHT22;3159;52.414;9.784;2023-07-31T02:40:49;17.90;99.90
6252;DHT22;3159;52.414;9.784;2023-07-31T02:43:16;17.90;99.90
6252;DHT22;3159;52.414;9.784;2023-07-31T02:45:43;17.80;99.90
6252;DHT22;3159;52.414;9.784;2023-07-31T02:48:10;17.80;99.90
6252;DHT22;3159;52.414;9.784;2023-07-31T02:50:38;17.60;99.90
6252;DHT22;3159;52.414;9.784;2023-07-31T02:53:05;17.40;99.90
6252;DHT22;3159;52.414;9.784;2023-07-31T02:55:31;17.40;99.90
6252;DHT22;3159;52.414;9.784;2023-07-31T02:57:58;17.60;99.90
6252;DHT22;3159;52.414;9.784;2023-07-31T03:00:25;17.60;99.90
6252;DHT22;3159;52.414;9.784;2023-07-31T03:02:52;17.60;99.90
6252;DHT22;3159;52.414;9.784;2023-07-31T03:05:19;17.80;99.90
6252;DHT22;3159;52.414;9.784;2023-07-31T03:07:49;17.90;99.90
6252;DHT22;3159;52.414;9.784;2023-07-31T03:10:16;17.90;99.90
6252;DHT22;3159;52.414;9.784;2023-07-31T03:12:46;17.80;99.90
6252;DHT22;3159;52.414;9.784;2023-07-31T03:15:13;18.00;99.90
6252;DHT22;3159;52.414;9.784;2023-07-31T03:17:40;18.10;99.90
6252;DHT22;3159;52.414;9.784;2023-07-31T03:20:07;18.20;99.90
6252;DHT22;3159;52.414;9.784;2023-07-31T03:22:35;18.20;99.90
6252;DHT22;3159;52.414;9.784;2023-07-31T03:25:03;18.30;99.90
6252;DHT22;3159;52.414;9.784;2023-07-31T03:27:30;18.30;99.90
6252;DHT22;3159;52.414;9.784;2023-07-31T03:29:57;18.40;99.90
6252;DHT22;3159;52.414;9.784;2023-07-31T03:32:24;18.30;99.90
6252;DHT22;3159;52.414;9.784;2023-07-31T03:34:54;18.30;99.90
6252;DHT22;3159;52.414;9.784;2023-07-31T03:37:23;18.30;99.90
6252;DHT22;3159;52.414;9.784;2023-07-31T03:39:50;18.10;99.90
6252;DHT22;3159;52.414;9.784;2023-07-31T03:42:18;18.20;99.90
6252;DHT22;3159;52.414;9.784;2023-07-31T03:44:45;18.20;99.90
6252;DHT22;3159;52.414;9.784;2023-07-31T03:47:11;18.20;99.90
6252;DHT22;3159;52.414;9.784;2023-07-31T03:49:38;18.20;99.90
6252;DHT22;3159;52.414;9.784;2023-07-31T03:52:06;18.30;99.90
6252;DHT22;3159;52.414;9.784;2023-07-31T03:54:33;18.20;99.90
6252;DHT22;3159;52.414;9.784;2023-07-31T03:57:00;18.20;99.90
6252;DHT22;3159;52.414;9.784;2023-07-31T03:59:28;18.00;99.90
6252;DHT22;3159;52.414;9.784;2023-07-31T04:01:54;18.00;99.90
6252;DHT22;3159;52.414;9.784;2023-07-31T04:04:21;18.00;99.90
6252;DHT22;3159;52.414;9.784;2023-07-31T04:06:48;18.10;99.90
6252;DHT22;3159;52.414;9.784;2023-07-31T04:09:15;18.00;99.90
6252;DHT22;3159;52.414;9.784;2023-07-31T04:11:42;18.10;99.90
6252;DHT22;3159;52.414;9.784;2023-07-31T04:14:09;18.00;99.90
6252;DHT22;3159;52.414;9.784;2023-07-31T04:16:37;18.00;99.90
6252;DHT22;3159;52.414;9.784;2023-07-31T04:19:04;17.90;99.90
6252;DHT22;3159;52.414;9.784;2023-07-31T04:21:31;17.70;99.90
6252;DHT22;3159;52.414;9.784;2023-07-31T04:23:57;17.50;99.90
6252;DHT22;3159;52.414;9.784;2023-07-31T04:26:24;17.60;99.90
6252;DHT22;3159;52.414;9.784;2023-07-31T04:28:54;17.60;99.90
6252;DHT22;3159;52.414;9.784;2023-07-31T04:31:21;17.60;99.90
6252;DHT22;3159;52.414;9.784;2023-07-31T04:33:49;17.60;99.90
6252;DHT22;3159;52.414;9.784;2023-07-31T04:36:16;17.50;99.90
6252;DHT22;3159;52.414;9.784;2023-07-31T04:38:42;17.50;99.90
6252;DHT22;3159;52.414;9.784;2023-07-31T04:41:09;17.50;99.90
6252;DHT22;3159;52.414;9.784;2023-07-31T04:43:36;17.60;99.90
6252;DHT22;3159;52.414;9.784;2023-07-31T04:46:04;17.70;99.90
6252;DHT22;3159;52.414;9.784;2023-07-31T04:48:31;17.70;99.90
6252;DHT22;3159;52.414;9.784;2023-07-31T04:50:59;17.60;99.90
6252;DHT22;3159;52.414;9.784;2023-07-31T04:53:26;17.50;99.90
6252;DHT22;3159;52.414;9.784;2023-07-31T04:55:53;17.50;99.90
6252;DHT22;3159;52.414;9.784;2023-07-31T04:58:20;17.30;99.90
6252;DHT22;3159;52.414;9.784;2023-07-31T05:00:47;17.10;99.90
6252;DHT22;3159;52.414;9.784;2023-07-31T05:03:13;17.10;99.90
6252;DHT22;3159;52.414;9.784;2023-07-31T05:05:40;17.00;99.90
6252;DHT22;3159;52.414;9.784;2023-07-31T05:08:09;17.10;99.90
6252;DHT22;3159;52.414;9.784;2023-07-31T05:10:36;17.20;99.90
6252;DHT22;3159;52.414;9.784;2023-07-31T05:13:02;17.30;99.90
6252;DHT22;3159;52.414;9.784;2023-07-31T05:15:29;17.40;99.90
6252;DHT22;3159;52.414;9.784;2023-07-31T05:17:56;17.20;99.90
6252;DHT22;3159;52.414;9.784;2023-07-31T05:20:23;17.30;99.90
6252;DHT22;3159;52.414;9.784;2023-07-31T05:22:50;17.40;99.90
6252;DHT22;3159;52.414;9.784;2023-07-31T05:25:19;17.40;99.90
6252;DHT22;3159;52.414;9.784;2023-07-31T05:27:46;17.40;99.90
6252;DHT22;3159;52.414;9.784;2023-07-31T05:30:12;17.40;99.90
6252;DHT22;3159;52.414;9.784;2023-07-31T05:32:39;17.40;99.90
6252;DHT22;3159;52.414;9.784;2023-07-31T05:35:06;17.40;99.90
6252;DHT22;3159;52.414;9.784;2023-07-31T05:37:33;17.40;99.90
6252;DHT22;3159;52.414;9.784;2023-07-31T05:40:00;17.40;99.90
6252;DHT22;3159;52.414;9.784;2023-07-31T05:42:28;17.50;99.90
6252;DHT22;3159;52.414;9.784;2023-07-31T05:44:55;17.40;99.90
6252;DHT22;3159;52.414;9.784;2023-07-31T05:47:22;17.30;99.90
6252;DHT22;3159;52.414;9.784;2023-07-31T05:49:49;17.40;99.90
6252;DHT22;3159;52.414;9.784;2023-07-31T05:52:18;17.30;99.90
6252;DHT22;3159;52.414;9.784;2023-07-31T05:54:45;17.40;99.90
6252;DHT22;3159;52.414;9.784;2023-07-31T05:57:12;17.40;99.90
6252;DHT22;3159;52.414;9.784;2023-07-31T05:59:40;17.40;99.90
6252;DHT22;3159;52.414;9.784;2023-07-31T06:02:07;17.40;99.90
6252;DHT22;3159;52.414;9.784;2023-07-31T06:04:34;17.40;99.90
6252;DHT22;3159;52.414;9.784;2023-07-31T06:07:07;17.40;99.90
6252;DHT22;3159;52.414;9.784;2023-07-31T06:09:44;17.40;99.90
6252;DHT22;3159;52.414;9.784;2023-07-31T06:12:11;17.40;99.90
6252;DHT22;3159;52.414;9.784;2023-07-31T06:14:39;17.30;99.90
6252;DHT22;3159;52.414;9.784;2023-07-31T06:17:06;17.30;99.90
6252;DHT22;3159;52.414;9.784;2023-07-31T06:19:33;17.30;99.90
6252;DHT22;3159;52.414;9.784;2023-07-31T06:21:59;17.30;99.90
6252;DHT22;3159;52.414;9.784;2023-07-31T06:24:27;17.40;99.90
6252;DHT22;3159;52.414;9.784;2023-07-31T06:26:55;17.40;99.90
6252;DHT22;3159;52.414;9.784;2023-07-31T06:29:23;17.30;99.90
6252;DHT22;3159;52.414;9.784;2023-07-31T06:31:51;17.40;99.90
6252;DHT22;3159;52.414;9.784;2023-07-31T06:34:18;17.30;99.90
6252;DHT22;3159;52.414;9.784;2023-07-31T06:36:44;17.20;99.90
6252;DHT22;3159;52.414;9.784;2023-07-31T06:39:11;17.20;99.90
6252;DHT22;3159;52.414;9.784;2023-07-31T06:41:39;17.20;99.90
6252;DHT22;3159;52.414;9.784;2023-07-31T06:44:06;17.20;99.90
6252;DHT22;3159;52.414;9.784;2023-07-31T06:46:32;17.20;99.90
6252;DHT22;3159;52.414;9.784;2023-07-31T06:49:01;17.10;99.90
6252;DHT22;3159;52.414;9.784;2023-07-31T06:51:27;17.10;99.90
6252;DHT22;3159;52.414;9.784;2023-07-31T06:53:56;17.10;99.90
6252;DHT22;3159;52.414;9.784;2023-07-31T06:56:23;17.10;99.90
6252;DHT22;3159;52.414;9.784;2023-07-31T06:58:51;17.00;99.90
6252;DHT22;3159;52.414;9.784;2023-07-31T07:01:18;17.00;99.90
6252;DHT22;3159;52.414;9.784;2023-07-31T07:03:45;17.10;99.90
6252;DHT22;3159;52.414;9.784;2023-07-31T07:06:14;17.10;99.90
6252;DHT22;3159;52.414;9.784;2023-07-31T07:08:40;16.90;99.90
6252;DHT22;3159;52.414;9.784;2023-07-31T07:11:07;17.00;99.90
6252;DHT22;3159;52.414;9.784;2023-07-31T07:13:34;17.00;99.90
6252;DHT22;3159;52.414;9.784;2023-07-31T07:16:01;17.00;99.90
6252;DHT22;3159;52.414;9.784;2023-07-31T07:18:28;17.00;99.90
6252;DHT22;3159;52.414;9.784;2023-07-31T07:20:55;17.00;99.90
6252;DHT22;3159;52.414;9.784;2023-07-31T07:23:25;17.10;99.90
6252;DHT22;3159;52.414;9.784;2023-07-31T07:25:51;17.10;99.90
6252;DHT22;3159;52.414;9.784;2023-07-31T07:28:18;17.00;99.90
6252;DHT22;3159;52.414;9.784;2023-07-31T07:30:50;17.10;99.90
6252;DHT22;3159;52.414;9.784;2023-07-31T07:33:17;17.10;99.90
6252;DHT22;3159;52.414;9.784;2023-07-31T07:35:44;17.20;99.90
6252;DHT22;3159;52.414;9.784;2023-07-31T07:38:10;17.30;99.90
6252;DHT22;3159;52.414;9.784;2023-07-31T07:40:40;17.40;99.90
6252;DHT22;3159;52.414;9.784;2023-07-31T07:43:07;17.40;99.90
6252;DHT22;3159;52.414;9.784;2023-07-31T07:45:34;17.50;99.90
6252;DHT22;3159;52.414;9.784;2023-07-31T07:48:01;17.50;99.90
6252;DHT22;3159;52.414;9.784;2023-07-31T07:50:28;17.60;99.90
6252;DHT22;3159;52.414;9.784;2023-07-31T07:52:54;17.50;99.90
6252;DHT22;3159;52.414;9.784;2023-07-31T07:55:21;17.60;99.90
6252;DHT22;3159;52.414;9.784;2023-07-31T07:57:49;17.60;99.90
6252;DHT22;3159;52.414;9.784;2023-07-31T08:00:16;17.50;99.90
6252;DHT22;3159;52.414;9.784;2023-07-31T08:02:43;17.70;99.90
6252;DHT22;3159;52.414;9.784;2023-07-31T08:05:10;17.60;99.90
6252;DHT22;3159;52.414;9.784;2023-07-31T08:07:38;17.80;99.90
6252;DHT22;3159;52.414;9.784;2023-07-31T08:10:06;17.80;99.90
6252;DHT22;3159;52.414;9.784;2023-07-31T08:12:33;17.80;99.90
6252;DHT22;3159;52.414;9.784;2023-07-31T08:15:01;17.80;99.90
6252;DHT22;3159;52.414;9.784;2023-07-31T08:17:28;17.70;99.90
6252;DHT22;3159;52.414;9.784;2023-07-31T08:19:55;17.60;99.90
6252;DHT22;3159;52.414;9.784;2023-07-31T08:22:24;17.60;99.90
6252;DHT22;3159;52.414;9.784;2023-07-31T08:24:51;17.70;99.90
6252;DHT22;3159;52.414;9.784;2023-07-31T08:27:17;17.70;99.90
6252;DHT22;3159;52.414;9.784;2023-07-31T08:29:44;17.70;99.90
6252;DHT22;3159;52.414;9.784;2023-07-31T08:32:12;17.70;99.90
6252;DHT22;3159;52.414;9.784;2023-07-31T08:34:39;17.70;99.90
6252;DHT22;3159;52.414;9.784;2023-07-31T08:37:07;17.70;99.90
6252;DHT22;3159;52.414;9.784;2023-07-31T08:39:34;17.70;99.90
6252;DHT22;3159;52.414;9.784;2023-07-31T08:42:01;17.70;99.90
6252;DHT22;3159;52.414;9.784;2023-07-31T08:44:29;17.90;99.90
6252;DHT22;3159;52.414;9.784;2023-07-31T08:46:57;17.80;99.90
6252;DHT22;3159;52.414;9.784;2023-07-31T08:49:26;17.80;99.90
6252;DHT22;3159;52.414;9.784;2023-07-31T08:51:54;17.80;99.90
6252;DHT22;3159;52.414;9.784;2023-07-31T08:54:23;17.90;99.90
6252;DHT22;3159;52.414;9.784;2023-07-31T08:56:50;17.90;99.90
6252;DHT22;3159;52.414;9.784;2023-07-31T08:59:20;18.00;99.90
6252;DHT22;3159;52.414;9.784;2023-07-31T09:01:50;18.00;99.90
6252;DHT22;3159;52.414;9.784;2023-07-31T09:04:20;18.00;99.90
6252;DHT22;3159;52.414;9.784;2023-07-31T09:06:49;17.90;99.90
6252;DHT22;3159;52.414;9.784;2023-07-31T09:09:17;17.90;99.90
6252;DHT22;3159;52.414;9.784;2023-07-31T09:11:46;18.00;99.90
6252;DHT22;3159;52.414;9.784;2023-07-31T09:14:14;18.00;99.90
6252;DHT22;3159;52.414;9.784;2023-07-31T09:16:52;17.90;99.90
6252;DHT22;3159;52.414;9.784;2023-07-31T09:19:27;18.00;99.90
6252;DHT22;3159;52.414;9.784;2023-07-31T09:21:55;18.10;99.90
6252;DHT22;3159;52.414;9.784;2023-07-31T09:24:26;18.20;99.90
6252;DHT22;3159;52.414;9.784;2023-07-31T09:26:54;18.40;99.90
6252;DHT22;3159;52.414;9.784;2023-07-31T09:29:21;18.40;99.90
6252;DHT22;3159;52.414;9.784;2023-07-31T09:31:50;18.30;99.90
6252;DHT22;3159;52.414;9.784;2023-07-31T09:34:17;18.20;99.90
6252;DHT22;3159;52.414;9.784;2023-07-31T09:36:45;18.30;99.90
6252;DHT22;3159;52.414;9.784;2023-07-31T09:39:14;18.40;99.90
6252;DHT22;3159;52.414;9.784;2023-07-31T09:41:43;18.40;99.90
6252;DHT22;3159;52.414;9.784;2023-07-31T09:44:10;18.40;99.90
6252;DHT22;3159;52.414;9.784;2023-07-31T09:46:37;18.40;99.90
6252;DHT22;3159;52.414;9.784;2023-07-31T09:49:08;18.30;99.90
6252;DHT22;3159;52.414;9.784;2023-07-31T09:51:36;18.30;99.90
6252;DHT22;3159;52.414;9.784;2023-07-31T09:54:09;18.20;99.90
6252;DHT22;3159;52.414;9.784;2023-07-31T09:56:41;18.20;99.90
6252;DHT22;3159;52.414;9.784;2023-07-31T09:59:11;18.30;99.90
6252;DHT22;3159;52.414;9.784;2023-07-31T10:01:38;18.30;99.90
6252;DHT22;3159;52.414;9.784;2023-07-31T10:04:06;18.20;99.90
6252;DHT22;3159;52.414;9.784;2023-07-31T10:06:34;18.20;99.90
6252;DHT22;3159;52.414;9.784;2023-07-31T10:09:02;18.20;99.90
6252;DHT22;3159;52.414;9.784;2023-07-31T10:11:30;18.10;99.90
6252;DHT22;3159;52.414;9.784;2023-07-31T10:14:02;18.10;99.90
6252;DHT22;3159;52.414;9.784;2023-07-31T10:16:30;18.20;99.90
6252;DHT22;3159;52.414;9.784;2023-07-31T10:18:57;18.20;99.90
6252;DHT22;3159;52.414;9.784;2023-07-31T10:21:25;18.30;99.90
6252;DHT22;3159;52.414;9.784;2023-07-31T10:23:53;18.40;99.90
6252;DHT22;3159;52.414;9.784;2023-07-31T10:26:23;18.40;99.90
6252;DHT22;3159;52.414;9.784;2023-07-31T10:28:52;18.50;99.90
6252;DHT22;3159;52.414;9.784;2023-07-31T10:31:21;18.50;99.90
6252;DHT22;3159;52.414;9.784;2023-07-31T10:33:49;18.50;99.90
6252;DHT22;3159;52.414;9.784;2023-07-31T10:36:18;18.50;99.90
6252;DHT22;3159;52.414;9.784;2023-07-31T10:38:45;18.50;99.90
6252;DHT22;3159;52.414;9.784;2023-07-31T10:41:12;18.50;99.90
6252;DHT22;3159;52.414;9.784;2023-07-31T10:43:39;18.60;99.90
6252;DHT22;3159;52.414;9.784;2023-07-31T10:46:07;18.50;99.90
6252;DHT22;3159;52.414;9.784;2023-07-31T10:48:37;18.60;99.90
6252;DHT22;3159;52.414;9.784;2023-07-31T10:51:08;18.60;99.90
6252;DHT22;3159;52.414;9.784;2023-07-31T10:53:36;18.70;99.90
6252;DHT22;3159;52.414;9.784;2023-07-31T10:56:04;18.60;99.90
6252;DHT22;3159;52.414;9.784;2023-07-31T10:58:32;18.70;99.90
6252;DHT22;3159;52.414;9.784;2023-07-31T11:01:00;18.70;99.90
6252;DHT22;3159;52.414;9.784;2023-07-31T11:03:43;18.70;99.90
6252;DHT22;3159;52.414;9.784;2023-07-31T11:06:10;18.60;99.90
6252;DHT22;3159;52.414;9.784;2023-07-31T11:08:42;18.70;99.90
6252;DHT22;3159;52.414;9.784;2023-07-31T11:11:10;18.60;99.90
6252;DHT22;3159;52.414;9.784;2023-07-31T11:13:42;18.70;99.90
6252;DHT22;3159;52.414;9.784;2023-07-31T11:16:10;18.60;99.90
6252;DHT22;3159;52.414;9.784;2023-07-31T11:18:39;18.60;99.90
6252;DHT22;3159;52.414;9.784;2023-07-31T11:21:08;18.60;99.90
6252;DHT22;3159;52.414;9.784;2023-07-31T11:23:37;18.70;99.90
6252;DHT22;3159;52.414;9.784;2023-07-31T11:26:05;18.70;99.90
6252;DHT22;3159;52.414;9.784;2023-07-31T11:28:33;18.70;99.90
6252;DHT22;3159;52.414;9.784;2023-07-31T11:31:01;18.70;99.90
6252;DHT22;3159;52.414;9.784;2023-07-31T11:33:28;18.70;99.90
6252;DHT22;3159;52.414;9.784;2023-07-31T11:35:55;18.70;99.90
6252;DHT22;3159;52.414;9.784;2023-07-31T11:38:24;18.70;99.90
6252;DHT22;3159;52.414;9.784;2023-07-31T11:40:51;18.70;99.90
6252;DHT22;3159;52.414;9.784;2023-07-31T11:43:19;18.70;99.90
6252;DHT22;3159;52.414;9.784;2023-07-31T11:45:48;18.80;99.90
6252;DHT22;3159;52.414;9.784;2023-07-31T11:48:22;18.70;99.90
6252;DHT22;3159;52.414;9.784;2023-07-31T11:50:50;18.80;99.90
6252;DHT22;3159;52.414;9.784;2023-07-31T11:53:20;18.90;99.90
6252;DHT22;3159;52.414;9.784;2023-07-31T11:55:49;19.00;99.90
6252;DHT22;3159;52.414;9.784;2023-07-31T11:58:18;18.90;99.90
6252;DHT22;3159;52.414;9.784;2023-07-31T12:00:45;18.90;99.90
6252;DHT22;3159;52.414;9.784;2023-07-31T12:03:13;18.90;99.90
6252;DHT22;3159;52.414;9.784;2023-07-31T12:05:40;18.90;99.90
6252;DHT22;3159;52.414;9.784;2023-07-31T12:08:10;18.90;99.90
6252;DHT22;3159;52.414;9.784;2023-07-31T12:10:38;18.90;99.90
6252;DHT22;3159;52.414;9.784;2023-07-31T12:13:08;19.00;99.90
6252;DHT22;3159;52.414;9.784;2023-07-31T12:15:40;19.10;99.90
6252;DHT22;3159;52.414;9.784;2023-07-31T12:18:09;19.00;99.90
6252;DHT22;3159;52.414;9.784;2023-07-31T12:20:41;18.90;99.90
6252;DHT22;3159;52.414;9.784;2023-07-31T12:23:13;18.90;99.90
6252;DHT22;3159;52.414;9.784;2023-07-31T12:25:40;18.90;99.90
6252;DHT22;3159;52.414;9.784;2023-07-31T12:28:09;18.80;99.90
6252;DHT22;3159;52.414;9.784;2023-07-31T12:30:38;18.80;99.90
6252;DHT22;3159;52.414;9.784;2023-07-31T12:33:07;18.90;99.90
6252;DHT22;3159;52.414;9.784;2023-07-31T12:35:41;18.90;99.90
6252;DHT22;3159;52.414;9.784;2023-07-31T12:38:08;19.00;99.90
6252;DHT22;3159;52.414;9.784;2023-07-31T12:40:37;19.00;99.90
6252;DHT22;3159;52.414;9.784;2023-07-31T12:43:05;18.90;99.90
6252;DHT22;3159;52.414;9.784;2023-07-31T12:45:34;19.10;99.90
6252;DHT22;3159;52.414;9.784;2023-07-31T12:48:01;19.10;99.90
6252;DHT22;3159;52.414;9.784;2023-07-31T12:50:28;19.10;99.90
6252;DHT22;3159;52.414;9.784;2023-07-31T12:52:55;18.90;99.90
6252;DHT22;3159;52.414;9.784;2023-07-31T12:55:23;18.90;99.90
6252;DHT22;3159;52.414;9.784;2023-07-31T12:57:50;18.90;99.90
6252;DHT22;3159;52.414;9.784;2023-07-31T13:00:17;18.80;99.90
6252;DHT22;3159;52.414;9.784;2023-07-31T13:02:45;18.80;99.90
6252;DHT22;3159;52.414;9.784;2023-07-31T13:05:12;18.80;99.90
6252;DHT22;3159;52.414;9.784;2023-07-31T13:07:39;18.80;99.90
6252;DHT22;3159;52.414;9.784;2023-07-31T13:10:07;18.80;99.90
6252;DHT22;3159;52.414;9.784;2023-07-31T13:12:34;18.80;99.90
6252;DHT22;3159;52.414;9.784;2023-07-31T13:15:01;18.90;99.90
6252;DHT22;3159;52.414;9.784;2023-07-31T13:17:28;19.00;99.90
6252;DHT22;3159;52.414;9.784;2023-07-31T13:19:56;19.00;99.90
6252;DHT22;3159;52.414;9.784;2023-07-31T13:22:23;19.00;99.90
6252;DHT22;3159;52.414;9.784;2023-07-31T13:24:50;18.90;99.90
6252;DHT22;3159;52.414;9.784;2023-07-31T13:27:17;19.00;99.90
6252;DHT22;3159;52.414;9.784;2023-07-31T13:29:47;19.10;99.90
6252;DHT22;3159;52.414;9.784;2023-07-31T13:32:14;19.00;99.90
6252;DHT22;3159;52.414;9.784;2023-07-31T13:34:41;19.10;99.90
6252;DHT22;3159;52.414;9.784;2023-07-31T13:37:09;19.10;99.90
6252;DHT22;3159;52.414;9.784;2023-07-31T13:39:36;19.00;99.90
6252;DHT22;3159;52.414;9.784;2023-07-31T13:42:04;19.00;99.90
6252;DHT22;3159;52.414;9.784;2023-07-31T13:44:32;19.00;99.90
6252;DHT22;3159;52.414;9.784;2023-07-31T13:46:59;19.10;99.90
6252;DHT22;3159;52.414;9.784;2023-07-31T13:49:26;19.10;99.90
6252;DHT22;3159;52.414;9.784;2023-07-31T13:51:53;19.20;99.90
6252;DHT22;3159;52.414;9.784;2023-07-31T13:54:22;19.30;99.90
6252;DHT22;3159;52.414;9.784;2023-07-31T13:56:49;19.40;99.90
6252;DHT22;3159;52.414;9.784;2023-07-31T13:59:16;19.40;99.90
6252;DHT22;3159;52.414;9.784;2023-07-31T14:01:43;19.30;99.90
6252;DHT22;3159;52.414;9.784;2023-07-31T14:04:11;19.30;99.90
6252;DHT22;3159;52.414;9.784;2023-07-31T14:06:38;19.40;99.90
6252;DHT22;3159;52.414;9.784;2023-07-31T14:09:05;19.40;99.90
6252;DHT22;3159;52.414;9.784;2023-07-31T14:11:33;19.40;99.90
6252;DHT22;3159;52.414;9.784;2023-07-31T14:14:00;19.40;99.90
6252;DHT22;3159;52.414;9.784;2023-07-31T14:16:28;19.40;99.90
6252;DHT22;3159;52.414;9.784;2023-07-31T14:18:55;19.40;99.90
6252;DHT22;3159;52.414;9.784;2023-07-31T14:21:24;19.40;99.90
6252;DHT22;3159;52.414;9.784;2023-07-31T14:23:51;19.50;99.90
6252;DHT22;3159;52.414;9.784;2023-07-31T14:26:18;19.60;99.90
6252;DHT22;3159;52.414;9.784;2023-07-31T14:28:46;19.50;99.90
6252;DHT22;3159;52.414;9.784;2023-07-31T14:31:13;19.50;99.90
6252;DHT22;3159;52.414;9.784;2023-07-31T14:33:41;19.60;99.90
6252;DHT22;3159;52.414;9.784;2023-07-31T14:36:08;19.50;99.90
6252;DHT22;3159;52.414;9.784;2023-07-31T14:38:34;19.50;99.90
6252;DHT22;3159;52.414;9.784;2023-07-31T14:41:01;19.60;99.90
6252;DHT22;3159;52.414;9.784;2023-07-31T14:43:28;19.70;99.90
6252;DHT22;3159;52.414;9.784;2023-07-31T14:45:57;19.60;99.90
6252;DHT22;3159;52.414;9.784;2023-07-31T14:48:25;19.40;99.90
6252;DHT22;3159;52.414;9.784;2023-07-31T14:50:52;19.50;99.90
6252;DHT22;3159;52.414;9.784;2023-07-31T14:53:19;19.50;99.90
6252;DHT22;3159;52.414;9.784;2023-07-31T14:55:46;19.60;99.90
6252;DHT22;3159;52.414;9.784;2023-07-31T14:58:13;19.60;99.90
6252;DHT22;3159;52.414;9.784;2023-07-31T15:00:40;19.50;99.90
6252;DHT22;3159;52.414;9.784;2023-07-31T15:03:08;19.50;99.90
6252;DHT22;3159;52.414;9.784;2023-07-31T15:05:35;19.50;99.90
6252;DHT22;3159;52.414;9.784;2023-07-31T15:08:02;19.50;99.90
6252;DHT22;3159;52.414;9.784;2023-07-31T15:10:29;19.60;99.90
6252;DHT22;3159;52.414;9.784;2023-07-31T15:12:56;19.70;99.90
6252;DHT22;3159;52.414;9.784;2023-07-31T15:15:23;19.80;99.90
6252;DHT22;3159;52.414;9.784;2023-07-31T15:17:50;19.90;99.90
6252;DHT22;3159;52.414;9.784;2023-07-31T15:20:18;20.00;99.90
6252;DHT22;3159;52.414;9.784;2023-07-31T15:22:45;20.00;99.90
6252;DHT22;3159;52.414;9.784;2023-07-31T15:25:12;19.90;99.90
6252;DHT22;3159;52.414;9.784;2023-07-31T15:27:39;19.90;99.90
6252;DHT22;3159;52.414;9.784;2023-07-31T15:30:07;19.90;99.90
6252;DHT22;3159;52.414;9.784;2023-07-31T15:32:34;19.90;99.90
6252;DHT22;3159;52.414;9.784;2023-07-31T15:35:01;20.00;99.90
6252;DHT22;3159;52.414;9.784;2023-07-31T15:37:29;19.90;99.90
6252;DHT22;3159;52.414;9.784;2023-07-31T15:39:56;19.90;99.90
6252;DHT22;3159;52.414;9.784;2023-07-31T15:42:23;19.90;99.90
6252;DHT22;3159;52.414;9.784;2023-07-31T15:44:49;19.90;99.90
6252;DHT22;3159;52.414;9.784;2023-07-31T15:47:16;19.80;99.90
6252;DHT22;3159;52.414;9.784;2023-07-31T15:49:43;19.80;99.90
6252;DHT22;3159;52.414;9.784;2023-07-31T15:52:10;19.90;99.90
6252;DHT22;3159;52.414;9.784;2023-07-31T15:54:38;20.00;99.90
6252;DHT22;3159;52.414;9.784;2023-07-31T15:57:06;19.90;99.90
6252;DHT22;3159;52.414;9.784;2023-07-31T15:59:33;20.00;99.90
6252;DHT22;3159;52.414;9.784;2023-07-31T16:01:59;20.00;99.90
6252;DHT22;3159;52.414;9.784;2023-07-31T16:04:26;20.10;99.90